Wilder, Minnesota
Current Conditions -  °F | °C
As of 1:33 PM on Sunday 21 Dec 2014 (Local Time) from KMWM Reporting Station
Moderate Fog Moderate Fog  
Wind Chill: 30°   Ceiling: 200
Heat Index: 37°   Visibility: 0.5mi
Dew Point: 37°   Wind: 12mph
Humidity: 100%   Direction: 170°S
Pressure: 29.67"   Gusts: NA
Location:  43.9264°N, 95.2282°W
Report Text: KMWM 211933Z AUTO 17010KT 1/2SM FG OVC002 03/03 A2967 RMK AO2
Loading
Personal Weather Stations






























Interactive Weather Map New forecast layout! Learn more

10-Day Weather Forecast

Advertisements
Track Severe Weather on mobile